Flight Track Log - Related Links

Times and Time Zones

All times are in EDT time to prevent confusion due to time zone crossing. See the UAL4476 flight status page for this flight to view local times or setup timezone preferences in your user account.


Time Position Orientation Groundspeed Altitude Reporting Facility
EDT Latitude Longitude Course Direction KTS MPH feet Rate Location/Type
Sun 08:51:19 AM 41.3897 -81.8922 269° West 173 199 2,100  Level Cleveland Center
Sun 08:51:43 AM 41.3894 -81.9172 269° West 180 207 2,900 2,400 Climbing Cleveland Center
Sun 08:52:44 AM 41.4222 -81.9650 312° West 226 260 5,500 2,267 Climbing Cleveland Center
Sun 08:53:58 AM 41.4856 -81.8858 43° Northeast 227 261 8,000 2,328 Climbing Cleveland Center
Sun 08:54:58 AM 41.5406 -81.8094 46° Northeast 260 299 10,700 2,050 Climbing Cleveland Center
Sun 08:55:58 AM 41.5978 -81.7300 46° Northeast 283 326 12,100 1,250 Climbing Cleveland Center
Sun 08:56:58 AM 41.6653 -81.6422 44° Northeast 314 361 13,200 1,100 Climbing Cleveland Center
Sun 08:57:58 AM 41.7392 -81.5486 43° Northeast 349 402 14,300 1,000 Climbing Cleveland Center
Sun 08:58:58 AM 41.8064 -81.4606 44° Northeast 367 422 15,200 1,000 Climbing Cleveland Center
Sun 08:59:58 AM 41.8533 -81.3247 65° Northeast 388 447 16,300 1,100 Climbing Cleveland Center
Sun 09:00:58 AM 41.8772 -81.1744 78° East 401 461 17,400 1,100 Climbing Cleveland Center
Sun 09:01:58 AM 41.9028 -81.0156 78° East 423 487 18,500 1,100 Climbing Cleveland Center
Sun 09:02:58 AM 41.9283 -80.8567 78° East 435 501 19,600 1,050 Climbing Cleveland Center
Sun 09:03:58 AM 41.9578 -80.6753 78° East 441 507 20,600 1,000 Climbing Cleveland Center
Sun 09:04:58 AM 41.9828 -80.5022 79° East 456 525 21,600 1,000 Climbing Cleveland Center
Sun 09:05:58 AM 42.0097 -80.3289 78° East 471 542 22,600 1,000 Climbing Cleveland Center
Sun 09:06:58 AM 42.0383 -80.1525 78° East 476 548 23,600 900 Climbing Cleveland Center
Sun 09:07:58 AM 42.0586 -80.0128 79° East 481 554 24,400 900 Climbing Cleveland Center
Sun 09:08:58 AM 42.0889 -79.8194 78° East 476 548 25,400 1,100 Climbing Cleveland Center
Sun 09:09:58 AM 42.1164 -79.6258 79° East 476 548 26,600 1,050 Climbing Cleveland Center
Sun 09:10:58 AM 42.1400 -79.4519 80° East 476 548 27,500 950 Climbing Cleveland Center
Sun 09:11:58 AM 42.1653 -79.2806 79° East 470 541 28,500 750 Climbing Cleveland Center
Sun 09:12:58 AM 42.1903 -79.1092 79° East 470 541 29,000 550 Climbing Cleveland Center
Sun 09:13:58 AM 42.2108 -78.9347 81° East 470 541 29,600 700 Climbing Cleveland Center
Sun 09:14:58 AM 42.2336 -78.7772 79° East 470 541 30,400 900 Climbing Cleveland Center
Sun 09:15:58 AM 42.2578 -78.6025 79° East 470 541 31,400 800 Climbing Cleveland Center
Sun 09:16:58 AM 42.2775 -78.4250 81° East 470 541 32,000 600 Climbing Cleveland Center
Sun 09:17:58 AM 42.2989 -78.2447 81° East 470 541 32,600 800 Climbing Cleveland Center
Sun 09:18:58 AM 42.3222 -78.0614 80° East 481 554 33,600 950 Climbing Cleveland Center
Sun 09:19:58 AM 42.3411 -77.8836 82° East 486 559 34,500 700 Climbing Cleveland Center
Sun 09:20:58 AM 42.3675 -77.6800 80° East 486 559 35,000 153 Climbing Cleveland Center
Sun 09:23:14 AM 42.4125 -77.2667 81° East 506 582 35,000  Level Boston Center
Sun 09:24:14 AM 42.4347 -77.0797 81° East 506 582 35,000  Level Boston Center
Sun 09:25:14 AM 42.4547 -76.8925 82° East 506 582 35,000  Level Boston Center
Sun 09:26:14 AM 42.4744 -76.7053 82° East 500 575 35,000  Level Boston Center
Sun 09:27:14 AM 42.4956 -76.5264 81° East 495 570 35,000  Level Boston Center
Sun 09:28:14 AM 42.5128 -76.3389 83° East 495 570 35,000  Level Boston Center
Sun 09:29:14 AM 42.5314 -76.1567 82° East 490 564 35,000  Level Boston Center
Sun 09:30:14 AM 42.5519 -75.9719 81° East 490 564 35,000  Level Boston Center
Sun 09:31:14 AM 42.5658 -75.7894 84° East 490 564 35,000  Level Boston Center
Sun 09:32:14 AM 42.5669 -75.6033 89° East 490 564 35,000  Level Boston Center
Sun 09:33:14 AM 42.5675 -75.4258 90° East 484 557 35,000  Level Boston Center
Sun 09:34:14 AM 42.5703 -75.2369 89° East 489 563 35,000  Level Boston Center
Sun 09:35:14 AM 42.5725 -75.0536 89° East 489 563 35,000  Level Boston Center
Sun 09:36:14 AM 42.5725 -74.8706 90° East 483 556 35,000  Level Boston Center
Sun 09:37:14 AM 42.5719 -74.6956 90° East 473 544 35,000 -50 Level Boston Center
Sun 09:38:14 AM 42.5733 -74.5122 89° East 473 544 34,900  Descending Boston Center
Sun 09:39:14 AM 42.5744 -74.3178 89° East 473 544 35,000 -450 Climbing Boston Center
Sun 09:40:14 AM 42.5733 -74.1372 90° East 473 544 34,000 -1,250 Descending Boston Center
Sun 09:41:14 AM 42.5714 -73.9625 91° East 473 544 32,500 -1,300 Descending Boston Center
Sun 09:42:14 AM 42.5711 -73.8272 90° East 468 539 31,400 -1,400 Descending Boston Center
Sun 09:43:14 AM 42.5714 -73.6158 90° East 463 533 29,700 -1,500 Descending Boston Center
Sun 09:44:14 AM 42.5689 -73.4381 91° East 463 533 28,400 -1,200 Descending Boston Center
Sun 09:45:14 AM 42.5683 -73.2689 90° East 477 549 27,300 -1,200 Descending Boston Center
Sun 09:46:14 AM 42.5653 -73.0856 91° East 477 549 26,000 -1,250 Descending Boston Center
Sun 09:47:14 AM 42.5619 -72.9025 91° East 482 555 24,800 -1,150 Descending Boston Center
Sun 09:48:14 AM 42.5583 -72.7164 91° East 482 555 23,700 -1,100 Descending Boston Center
Sun 09:49:14 AM 42.5547 -72.5386 92° East 482 555 22,600 -1,150 Descending Boston Center
Sun 09:50:14 AM 42.5525 -72.3669 91° East 462 532 21,400 -1,800 Descending Boston Center
Sun 09:51:14 AM 42.5481 -72.2006 92° East 431 496 19,000 -2,450 Descending Boston Center
Sun 09:52:14 AM 42.5436 -72.0625 92° East 404 465 16,500 -2,450 Descending Boston Center
Sun 09:53:14 AM 42.5306 -71.9133 97° East 377 434 14,100 -2,100 Descending Boston Center
Sun 09:54:14 AM 42.5194 -71.7894 97° East 372 428 12,300 -1,500 Descending Boston Center
Sun 09:55:14 AM 42.5081 -71.6458 96° East 356 410 11,100 -927 Descending Boston Center
Sun 09:56:04 AM 42.5000 -71.5333 96° East 347 399 10,600 -696 Descending KA90
Sun 09:57:06 AM 42.4833 -71.4167 101° East 312 359 9,800 -942 Descending KA90
Sun 09:58:05 AM 42.4833 -71.3000 90° East 305 351 8,700 -1,261 Descending KA90
Sun 09:59:05 AM 42.4667 -71.2000 103° East 297 342 7,300 -1,327 Descending KA90
Sun 09:59:58 AM 42.4833 -71.1000 77° East 269 310 6,200 -690 Descending KA90
Sun 10:00:58 AM 42.5333 -71.0500 36° Northeast 256 295 6,000 -99 Descending KA90
Sun 10:01:59 AM 42.6000 -71.0000 29° Northeast 256 295 6,000 -500 Level KA90
Sun 10:02:58 AM 42.6500 -70.9667 26° Northeast 240 276 5,000 -800 Descending KA90
Sun 10:03:14 AM 42.6742 -70.9661 North 234 269 5,000 -316 Level Boston Center
Sun 10:04:14 AM 42.7172 -70.9142 42° Northeast 218 251 4,600 -500 Descending Boston Center
Sun 10:05:14 AM 42.6917 -70.8583 122° Southeast 153 176 4,000 -800 Descending Boston Center
Sun 10:06:14 AM 42.6419 -70.8764 195° South 120 138 3,000 -612 Descending Boston Center
Sun 10:06:52 AM 42.6167 -70.8833 191° South 176 203 3,000  Level KA90
Sun 10:07:54 AM 42.5667 -70.9000 194° South 187 215 3,000 -48 Level KA90
Sun 10:08:58 AM 42.5167 -70.9333 206° Southwest 188 216 2,900 -532 Descending KA90
Sun 10:09:58 AM 42.4667 -70.9500 194° South 174 200 1,900 -900 Descending KA90
Sun 10:10:58 AM 42.4333 -70.9667 200° South 148 170 1,100 -800 Descending KA90

Login

Don't have an account? Register now (free) for customized features, flight alerts, and more!